Flight Track Log - Related Links

Times and Time Zones

All times are in EDT time to prevent confusion due to time zone crossing. See the SWA902 flight status page for this flight to view local times or setup timezone preferences in your user account.

Time Position Orientation Groundspeed Altitude Reporting Facility
EDT Latitude Longitude Course Direction KTS MPH feet Rate Location/Type
Sun 05:14:11 PM 28.4167 -81.3000 210° Southwest 167 192 500  Level Orlando TRACON
Sun 05:15:11 PM 28.3667 -81.3333 210° Southwest 226 260 2,400 2,557 Climbing Orlando TRACON
Sun 05:16:06 PM 28.3333 -81.3667 221° Southwest 220 253 5,400 2,727 Climbing Orlando TRACON
Sun 05:17:12 PM 28.3333 -81.4667 270° West 287 330 7,900 1,238 Climbing Orlando TRACON
Sun 05:18:12 PM 28.3333 -81.5500 270° West 299 344 8,000 1,439 Climbing Orlando TRACON
Sun 05:20:28 PM 28.3244 -81.7583 267° West 303 349 12,600 2,571 Climbing Jacksonville Center
Sun 05:21:28 PM 28.3192 -81.8858 267° West 347 399 16,400 3,250 Climbing Jacksonville Center
Sun 05:22:28 PM 28.3139 -82.0061 267° West 372 428 19,100 2,700 Climbing Jacksonville Center
Sun 05:23:28 PM 28.3106 -82.1286 268° West 384 442 21,800 2,500 Climbing Jacksonville Center
Sun 05:24:28 PM 28.3425 -82.2464 287° West 391 450 24,100 2,000 Climbing Jacksonville Center
Sun 05:25:28 PM 28.4428 -82.3119 330° Northwest 374 430 25,800 1,650 Climbing Jacksonville Center
Sun 05:26:28 PM 28.5517 -82.3797 331° Northwest 407 468 27,400 1,700 Climbing Jacksonville Center
Sun 05:27:28 PM 28.6625 -82.4525 330° Northwest 436 502 29,200 1,800 Climbing Jacksonville Center
Sun 05:28:28 PM 28.7733 -82.5208 332° Northwest 446 513 31,000 1,850 Climbing Jacksonville Center
Sun 05:29:28 PM 28.8822 -82.5914 330° Northwest 451 519 32,900 1,700 Climbing Jacksonville Center
Sun 05:30:28 PM 28.9928 -82.6622 331° Northwest 451 519 34,400 1,600 Climbing Jacksonville Center
Sun 05:31:28 PM 29.0994 -82.7308 331° Northwest 451 519 36,100 1,550 Climbing Jacksonville Center
Sun 05:32:28 PM 29.2058 -82.7975 331° Northwest 441 507 37,500 950 Climbing Jacksonville Center
Sun 05:33:28 PM 29.3103 -82.8664 330° Northwest 441 507 38,000 250 Climbing Jacksonville Center
Sun 05:34:28 PM 29.4167 -82.9331 331° Northwest 436 502 38,000  Level Jacksonville Center
Sun 05:35:28 PM 29.5275 -83.0072 330° Northwest 442 509 38,000  Level Jacksonville Center
Sun 05:36:28 PM 29.6297 -83.0764 330° Northwest 437 503 38,000  Level Jacksonville Center
Sun 05:37:28 PM 29.7256 -83.1628 322° Northwest 437 503 38,000  Level Jacksonville Center
Sun 05:38:28 PM 29.8172 -83.2444 322° Northwest 427 491 38,000  Level Jacksonville Center
Sun 05:39:28 PM 29.9006 -83.3239 320° Northwest 427 491 38,000  Level Jacksonville Center
Sun 05:40:28 PM 29.9942 -83.4058 323° Northwest 427 491 38,000  Level Jacksonville Center
Sun 05:41:28 PM 30.0856 -83.4881 322° Northwest 427 491 38,000  Level Jacksonville Center
Sun 05:42:28 PM 30.1750 -83.5678 322° Northwest 422 486 38,000  Level Jacksonville Center
Sun 05:43:28 PM 30.2664 -83.6503 322° Northwest 416 479 38,000  Level Jacksonville Center
Sun 05:44:28 PM 30.3578 -83.7328 322° Northwest 416 479 38,000  Level Jacksonville Center
Sun 05:45:28 PM 30.4447 -83.8131 321° Northwest 416 479 38,000  Level Jacksonville Center
Sun 05:46:28 PM 30.5319 -83.8933 322° Northwest 411 473 38,000  Level Jacksonville Center
Sun 05:47:28 PM 30.6169 -83.9764 320° Northwest 404 465 38,000  Level Jacksonville Center
Sun 05:48:28 PM 30.7039 -84.0522 323° Northwest 399 459 38,000  Level Jacksonville Center
Sun 05:49:28 PM 30.7928 -84.1356 321° Northwest 399 459 38,000  Level Jacksonville Center
Sun 05:50:28 PM 30.8817 -84.2192 321° Northwest 399 459 38,000  Level Jacksonville Center
Sun 05:51:28 PM 30.9728 -84.3028 322° Northwest 405 466 38,000  Level Jacksonville Center
Sun 05:52:28 PM 31.0617 -84.3864 321° Northwest 405 466 38,000  Level Jacksonville Center
Sun 05:53:28 PM 31.1483 -84.4656 322° Northwest 405 466 38,000  Level Jacksonville Center
Sun 05:54:28 PM 31.2369 -84.5497 321° Northwest 405 466 38,000  Level Jacksonville Center
Sun 05:56:43 PM 31.4400 -84.7375 322° Northwest 392 451 38,000  Level Atlanta Center
Sun 05:57:43 PM 31.5314 -84.8233 321° Northwest 397 457 38,000  Level Atlanta Center
Sun 05:58:43 PM 31.6164 -84.9044 321° Northwest 397 457 38,000  Level Atlanta Center
Sun 05:59:43 PM 31.7053 -84.9908 320° Northwest 402 463 38,000  Level Atlanta Center
Sun 06:00:43 PM 31.8008 -85.0775 322° Northwest 413 475 38,000  Level Atlanta Center
Sun 06:01:43 PM 31.8958 -85.1689 321° Northwest 413 475 38,000  Level Atlanta Center
Sun 06:02:43 PM 31.9847 -85.2533 321° Northwest 413 475 38,000  Level Atlanta Center
Sun 06:03:43 PM 32.0758 -85.3381 322° Northwest 413 475 38,000  Level Atlanta Center
Sun 06:04:43 PM 32.1647 -85.4228 321° Northwest 413 475 38,000  Level Atlanta Center
Sun 06:05:43 PM 32.2556 -85.5100 321° Northwest 418 481 38,000  Level Atlanta Center
Sun 06:06:43 PM 32.3483 -85.5975 321° Northwest 418 481 38,000  Level Atlanta Center
Sun 06:07:43 PM 32.4411 -85.6853 321° Northwest 418 481 38,000  Level Atlanta Center
Sun 06:08:43 PM 32.5317 -85.7733 321° Northwest 423 487 38,000  Level Atlanta Center
Sun 06:09:43 PM 32.6203 -85.8589 321° Northwest 423 487 38,000  Level Atlanta Center
Sun 06:10:43 PM 32.7128 -85.9497 320° Northwest 429 494 38,000  Level Atlanta Center
Sun 06:11:43 PM 32.8033 -86.0381 321° Northwest 429 494 38,000  Level Atlanta Center
Sun 06:12:43 PM 32.8936 -86.1242 321° Northwest 429 494 38,000  Level Atlanta Center
Sun 06:13:43 PM 32.9758 -86.2081 319° Northwest 429 494 38,000  Level Atlanta Center
Sun 06:14:43 PM 33.0661 -86.2969 320° Northwest 429 494 38,000  Level Atlanta Center
Sun 06:15:43 PM 33.1542 -86.3836 321° Northwest 423 487 38,000  Level Atlanta Center
Sun 06:16:43 PM 33.2422 -86.4703 321° Northwest 423 487 38,000  Level Atlanta Center
Sun 06:17:43 PM 33.3383 -86.5700 319° Northwest 423 487 38,000  Level Atlanta Center
Sun 06:18:43 PM 33.4283 -86.6572 321° Northwest 423 487 38,000  Level Atlanta Center
Sun 06:19:43 PM 33.5183 -86.7472 320° Northwest 418 481 38,000  Level Atlanta Center
Sun 06:20:43 PM 33.6081 -86.8372 320° Northwest 424 488 38,000  Level Atlanta Center
Sun 06:21:43 PM 33.7042 -86.9253 323° Northwest 424 488 38,000  Level Atlanta Center
Sun 06:23:33 PM 33.8808 -87.0669 326° Northwest 434 499 38,000  Level Memphis Center
Sun 06:24:33 PM 33.9914 -87.1531 327° Northwest 440 506 38,000  Level Memphis Center
Sun 06:25:33 PM 34.0894 -87.2322 326° Northwest 434 499 38,000  Level Memphis Center
Sun 06:26:33 PM 34.1958 -87.3136 328° Northwest 429 494 38,000  Level Memphis Center
Sun 06:27:33 PM 34.2958 -87.3931 327° Northwest 429 494 38,000  Level Memphis Center
Sun 06:28:33 PM 34.3936 -87.4728 326° Northwest 429 494 38,000  Level Memphis Center
Sun 06:29:33 PM 34.4956 -87.5525 327° Northwest 434 499 38,000  Level Memphis Center
Sun 06:30:33 PM 34.5933 -87.6297 327° Northwest 429 494 38,000  Level Memphis Center
Sun 06:31:33 PM 34.6933 -87.7100 327° Northwest 429 494 38,000  Level Memphis Center
Sun 06:32:33 PM 34.7825 -87.7831 326° Northwest 429 494 38,000  Level Memphis Center
Sun 06:33:33 PM 34.8842 -87.8661 326° Northwest 435 501 38,000  Level Memphis Center
Sun 06:34:33 PM 34.9839 -87.9467 327° Northwest 440 506 38,000  Level Memphis Center
Sun 06:35:33 PM 35.0856 -88.0300 326° Northwest 435 501 38,000  Level Memphis Center
Sun 06:36:33 PM 35.1853 -88.1136 326° Northwest 430 495 38,000  Level Memphis Center
Sun 06:37:33 PM 35.2867 -88.1975 326° Northwest 436 502 38,000  Level Memphis Center
Sun 06:38:33 PM 35.3842 -88.2814 325° Northwest 436 502 38,000  Level Memphis Center
Sun 06:39:33 PM 35.4919 -88.3656 328° Northwest 420 483 38,000  Level Memphis Center
Sun 06:40:33 PM 35.5892 -88.4500 325° Northwest 420 483 38,000  Level Memphis Center
Sun 06:41:33 PM 35.6883 -88.5269 328° Northwest 420 483 38,000  Level Memphis Center
Sun 06:42:33 PM 35.7856 -88.6067 326° Northwest 425 489 38,000  Level Memphis Center
Sun 06:43:33 PM 35.8803 -88.6867 326° Northwest 425 489 38,000  Level Memphis Center
Sun 06:44:33 PM 35.9775 -88.7692 326° Northwest 425 489 38,000  Level Memphis Center
Sun 06:45:33 PM 36.0744 -88.8522 325° Northwest 425 489 38,000  Level Memphis Center
Sun 06:46:33 PM 36.1711 -88.9325 326° Northwest 425 489 38,000 -200 Level Memphis Center
Sun 06:47:33 PM 36.2700 -89.0158 326° Northwest 430 495 37,600 -700 Descending Memphis Center
Sun 06:48:33 PM 36.3792 -89.0811 334° Northwest 430 495 36,600 -950 Descending Memphis Center
Sun 06:49:33 PM 36.4925 -89.1439 336° Northwest 435 501 35,700 -900 Descending Memphis Center
Sun 06:50:33 PM 36.6056 -89.2119 334° Northwest 441 507 34,800 -950 Descending Memphis Center
Sun 06:51:33 PM 36.7189 -89.2800 334° Northwest 441 507 33,800 -950 Descending Memphis Center
Sun 06:52:33 PM 36.8256 -89.3433 335° Northwest 441 507 32,900 -950 Descending Memphis Center
Sun 06:53:33 PM 36.9344 -89.4069 335° Northwest 441 507 31,900 -1,735 Descending Memphis Center
Sun 06:56:04 PM 37.1861 -89.5483 336° Northwest 423 487 26,800 -1,662 Descending Kansas City Center
Sun 06:57:06 PM 37.2847 -89.6061 335° Northwest 407 468 26,000 -919 Descending Kansas City Center
Sun 06:58:08 PM 37.4028 -89.6683 337° Northwest 392 451 24,900 -1,016 Descending Kansas City Center
Sun 06:59:10 PM 37.4994 -89.7203 337° Northwest 384 442 23,900 -968 Descending Kansas City Center
Sun 07:00:12 PM 37.5903 -89.7717 336° Northwest 375 432 22,900 -1,065 Descending Kansas City Center
Sun 07:01:14 PM 37.6836 -89.8239 336° Northwest 370 426 21,700 -1,548 Descending Kansas City Center
Sun 07:02:16 PM 37.7714 -89.8725 336° Northwest 357 411 19,700 -2,081 Descending Kansas City Center
Sun 07:03:18 PM 37.8739 -89.9275 337° Northwest 343 395 17,400 -2,081 Descending Kansas City Center
Sun 07:04:20 PM 37.9594 -89.9719 338° Northwest 334 384 15,400 -1,935 Descending Kansas City Center
Sun 07:05:22 PM 38.0469 -90.0219 336° Northwest 322 371 13,400 -1,839 Descending Kansas City Center
Sun 07:06:24 PM 38.1272 -90.0664 336° Northwest 315 362 11,600 -1,500 Descending Kansas City Center
Sun 07:07:26 PM 38.2167 -90.0783 354° North 298 343 10,300 -1,016 Descending Kansas City Center
Sun 07:08:28 PM 38.2900 -90.0836 357° North 267 307 9,500 -677 Descending Kansas City Center
Sun 07:09:30 PM 38.3597 -90.0761 North 234 269 8,900 -823 Descending Kansas City Center
Sun 07:10:32 PM 38.4136 -90.0717 North 224 258 7,800 -1,065 Descending Kansas City Center
Sun 07:11:34 PM 38.4753 -90.0781 355° North 223 257 6,700 -1,016 Descending Kansas City Center
Sun 07:12:36 PM 38.5386 -90.0900 352° North 217 250 5,700 -1,016 Descending Kansas City Center
Sun 07:13:38 PM 38.5894 -90.1044 347° North 203 234 4,600 -1,065 Descending Kansas City Center
Sun 07:14:40 PM 38.6367 -90.1406 329° Northwest 199 229 3,500 -726 Descending Kansas City Center
Sun 07:15:42 PM 38.6703 -90.2008 306° West 183 211 3,100 -629 Descending Kansas City Center
Sun 07:16:44 PM 38.6967 -90.2547 302° West 180 207 2,200 -823 Descending Kansas City Center
Sun 07:17:46 PM 38.7189 -90.3008 302° West 168 193 1,400 -774 Descending Kansas City Center
Sun 07:18:48 PM 38.7392 -90.3414 303° West 150 173 600 -774 Descending Kansas City Center

Login

Don't have an account? Register now (free) for customized features, flight alerts, and more!